createdAt,value
2018-12-24T00:01:24.466Z,5.77
2018-12-24T00:04:09.062Z,6.43
2018-12-24T00:06:52.555Z,6.60
2018-12-24T00:09:36.790Z,6.43
2018-12-24T00:12:07.165Z,6.57
2018-12-24T00:14:54.317Z,7.90
2018-12-24T00:17:38.687Z,8.00
2018-12-24T00:20:22.873Z,7.83
2018-12-24T00:23:07.269Z,9.03
2018-12-24T00:25:51.162Z,8.87
2018-12-24T00:28:34.732Z,9.77
2018-12-24T00:31:20.207Z,9.53
2018-12-24T00:34:03.767Z,10.10
2018-12-24T00:36:47.993Z,11.17
2018-12-24T00:39:34.112Z,9.93
2018-12-24T00:42:18.617Z,10.83
2018-12-24T00:45:02.742Z,10.60
2018-12-24T00:50:54.198Z,13.07
2018-12-24T00:53:22.462Z,12.57
2018-12-24T00:56:10.271Z,14.47
2018-12-24T00:58:55.629Z,14.23
2018-12-24T01:01:40.530Z,12.87
2018-12-24T01:04:24.779Z,10.43
2018-12-24T01:07:10.116Z,11.00
2018-12-24T01:09:54.606Z,11.60
2018-12-24T01:12:38.694Z,10.10
2018-12-24T01:15:24.117Z,9.60
2018-12-24T01:23:26.753Z,7.73
2018-12-24T01:26:14.431Z,10.30
2018-12-24T01:28:42.726Z,10.70
2018-12-24T01:31:34.199Z,9.60
2018-12-24T01:34:18.292Z,10.97
2018-12-24T01:37:02.896Z,11.10
2018-12-24T01:39:46.550Z,11.43
2018-12-24T01:42:33.563Z,12.90
2018-12-24T01:45:02.214Z,13.07
2018-12-24T01:47:49.724Z,15.07
2018-12-24T01:50:32.923Z,17.83
2018-12-24T01:56:04.869Z,15.00
2018-12-24T01:58:51.963Z,17.57
2018-12-24T02:01:37.145Z,19.97
2018-12-24T02:04:21.872Z,16.87
2018-12-24T02:07:05.396Z,20.07
2018-12-24T02:09:49.791Z,20.13
2018-12-24T02:12:42.061Z,18.27
2018-12-24T02:15:19.885Z,19.13
2018-12-24T02:18:03.756Z,17.57
2018-12-24T02:20:50.450Z,19.23
2018-12-24T02:23:33.662Z,18.50
2018-12-24T02:26:18.227Z,17.83
2018-12-24T02:29:01.899Z,14.23
2018-12-24T02:34:34.350Z,12.93
2018-12-24T02:37:18.499Z,13.37
2018-12-24T02:40:02.662Z,12.13
2018-12-24T02:42:30.953Z,12.47
2018-12-24T02:45:19.624Z,14.93
2018-12-24T02:48:04.780Z,12.03
2018-12-24T02:50:48.517Z,13.37
2018-12-24T02:53:33.375Z,14.33
2018-12-24T02:59:03.028Z,14.27
2018-12-24T03:01:47.423Z,13.37
2018-12-24T03:04:31.497Z,16.37
2018-12-24T03:07:15.903Z,14.47
2018-12-24T03:10:00.018Z,15.63
2018-12-24T03:12:44.936Z,15.63
2018-12-24T03:15:29.114Z,15.87
2018-12-24T03:18:13.376Z,16.50
2018-12-24T03:20:41.919Z,16.33
2018-12-24T03:23:29.434Z,13.90
2018-12-24T03:26:13.903Z,14.10
2018-12-24T03:28:58.494Z,14.47
2018-12-24T03:31:42.695Z,14.30
2018-12-24T03:34:11.712Z,15.67
2018-12-24T03:36:59.244Z,13.17
2018-12-24T03:39:43.784Z,15.30
2018-12-24T03:42:13.346Z,13.70
2018-12-24T03:44:41.934Z,16.07
2018-12-24T03:47:25.397Z,15.37
2018-12-24T03:52:57.599Z,14.13
2018-12-24T03:55:41.928Z,14.13
2018-12-24T03:58:25.822Z,12.40
2018-12-24T04:01:12.091Z,14.27
2018-12-24T04:03:56.967Z,12.53
2018-12-24T04:06:42.238Z,14.13
2018-12-24T04:09:12.749Z,14.00
2018-12-24T04:15:12.572Z,10.97
2018-12-24T04:20:45.489Z,10.17
2018-12-24T04:23:29.463Z,10.07
2018-12-24T04:26:13.934Z,11.97
2018-12-24T04:28:59.170Z,11.77
2018-12-24T04:31:27.498Z,10.60
2018-12-24T04:33:55.857Z,7.83
2018-12-24T04:36:24.245Z,9.70
2018-12-24T04:39:11.812Z,14.53
2018-12-24T04:41:56.413Z,11.23
2018-12-24T04:44:40.433Z,8.87
2018-12-24T04:47:25.928Z,11.10
2018-12-24T04:50:09.633Z,12.67
2018-12-24T04:52:38.782Z,9.73
2018-12-24T04:55:26.625Z,9.27
2018-12-24T04:58:10.642Z,10.80
2018-12-24T05:00:54.650Z,9.10
2018-12-24T05:03:39.476Z,10.20
2018-12-24T05:06:23.533Z,15.70
2018-12-24T05:09:10.133Z,13.33
2018-12-24T05:11:55.005Z,8.87
2018-12-24T05:14:40.165Z,13.13
2018-12-24T05:17:46.131Z,11.50
2018-12-24T05:20:14.094Z,14.40
2018-12-24T05:22:57.469Z,11.10
2018-12-24T05:25:41.562Z,11.37
2018-12-24T05:28:24.997Z,15.47
2018-12-24T05:31:12.239Z,14.07
2018-12-24T05:42:34.197Z,11.97
2018-12-24T05:45:20.885Z,13.60
2018-12-24T05:48:12.610Z,12.80
2018-12-24T05:51:16.211Z,12.87
2018-12-24T05:53:43.103Z,11.83
2018-12-24T05:56:47.605Z,17.53
2018-12-24T05:59:13.486Z,11.80
2018-12-24T06:01:58.056Z,16.83
2018-12-24T06:04:42.171Z,13.13
2018-12-24T06:07:26.219Z,13.03
2018-12-24T06:10:10.564Z,11.13
2018-12-24T06:12:39.057Z,12.10
2018-12-24T06:15:27.224Z,11.40
2018-12-24T06:18:12.005Z,11.03
2018-12-24T06:26:29.540Z,12.70
2018-12-24T06:29:14.067Z,12.03
2018-12-24T06:31:58.220Z,10.80
2018-12-24T06:34:43.241Z,10.53
2018-12-24T06:40:13.163Z,13.27
2018-12-24T06:42:59.618Z,12.33
2018-12-24T06:45:43.549Z,13.23
2018-12-24T06:55:01.096Z,12.93
2018-12-24T07:00:55.956Z,11.07
2018-12-24T07:09:40.651Z,12.43
2018-12-24T07:12:26.003Z,13.67
2018-12-24T07:18:08.916Z,17.07
2018-12-24T07:23:10.969Z,15.57
2018-12-24T07:25:51.806Z,11.10
2018-12-24T07:28:44.558Z,12.13
2018-12-24T07:31:05.683Z,12.93
2018-12-24T07:33:48.479Z,11.53
2018-12-24T07:36:32.894Z,14.47
2018-12-24T07:39:05.650Z,13.23
2018-12-24T07:41:43.552Z,12.97
2018-12-24T07:44:24.289Z,15.50
2018-12-24T07:47:21.997Z,12.23
2018-12-24T07:50:14.497Z,14.50
2018-12-24T07:53:01.220Z,11.50
2018-12-24T07:55:47.358Z,13.53
2018-12-24T07:58:16.899Z,13.63
2018-12-24T08:00:46.376Z,9.87
2018-12-24T08:03:14.995Z,14.03
2018-12-24T08:05:43.461Z,12.30
2018-12-24T08:08:15.575Z,13.00
2018-12-24T08:10:44.156Z,14.57
2018-12-24T08:13:12.433Z,15.73
2018-12-24T08:15:40.803Z,15.83
2018-12-24T08:18:09.037Z,14.30
2018-12-24T08:20:37.848Z,15.00
2018-12-24T08:23:07.848Z,10.80
2018-12-24T08:25:40.995Z,13.00
2018-12-24T08:28:28.681Z,11.23
2018-12-24T08:30:58.971Z,11.93
2018-12-24T08:33:27.585Z,10.43
2018-12-24T08:35:59.017Z,11.60
2018-12-24T08:38:30.013Z,11.60
2018-12-24T08:40:58.316Z,9.43
2018-12-24T08:43:26.782Z,11.13
2018-12-24T08:45:55.289Z,9.83
2018-12-24T08:48:27.918Z,13.17
2018-12-24T08:51:03.261Z,11.13
2018-12-24T08:53:40.880Z,9.23
2018-12-24T08:56:52.755Z,10.33
2018-12-24T08:59:17.053Z,9.93
2018-12-24T09:01:54.053Z,9.57
2018-12-24T09:04:25.658Z,8.53
2018-12-24T09:07:23.709Z,8.37
2018-12-24T09:09:57.499Z,10.40
2018-12-24T09:12:32.534Z,10.47
2018-12-24T09:15:11.520Z,11.63
2018-12-24T09:17:40.834Z,10.67
2018-12-24T09:20:10.071Z,10.43
2018-12-24T09:22:41.493Z,11.40
2018-12-24T09:25:17.118Z,8.10
2018-12-24T09:28:09.015Z,9.07
2018-12-24T09:30:51.922Z,9.80
2018-12-24T09:33:41.641Z,9.00
2018-12-24T09:36:26.128Z,7.93
2018-12-24T09:48:29.979Z,6.83
2018-12-24T09:51:55.435Z,7.83
2018-12-24T10:35:36.032Z,4.33
2018-12-24T10:53:36.166Z,4.47
2018-12-24T10:56:15.847Z,2.93
2018-12-24T11:45:08.169Z,2.83
2018-12-24T11:58:13.470Z,6.77
2018-12-24T12:00:57.271Z,3.77
2018-12-24T12:06:55.461Z,3.90
2018-12-24T12:10:44.752Z,4.30
2018-12-24T12:17:07.623Z,3.33
2018-12-24T12:20:03.514Z,3.57
2018-12-24T12:25:36.341Z,4.27
2018-12-24T12:28:06.382Z,4.00
2018-12-24T12:30:37.971Z,2.63
2018-12-24T12:33:06.663Z,3.93
2018-12-24T12:35:54.535Z,3.13
2018-12-24T12:48:03.667Z,2.53
2018-12-24T12:51:50.278Z,3.80
2018-12-24T12:57:46.660Z,2.80
2018-12-24T13:00:20.301Z,2.57
2018-12-24T13:03:19.927Z,3.07
2018-12-24T13:38:15.618Z,33.07
2018-12-24T13:41:11.957Z,11.90
2018-12-24T13:43:58.273Z,5.10
2018-12-24T13:46:43.253Z,3.90
2018-12-24T13:49:11.457Z,3.53
2018-12-24T13:57:45.823Z,3.27
2018-12-24T14:00:27.178Z,2.77
2018-12-24T14:03:19.202Z,3.43
2018-12-24T14:05:47.780Z,7.47
2018-12-24T14:08:15.964Z,2.23
2018-12-24T14:10:44.221Z,3.10
2018-12-24T14:13:14.356Z,3.77
2018-12-24T14:16:05.705Z,5.23
2018-12-24T14:18:39.507Z,2.67
2018-12-24T14:24:33.093Z,4.30
2018-12-24T14:27:19.948Z,5.93
2018-12-24T14:30:15.844Z,10.83
2018-12-24T14:33:10.496Z,15.33
2018-12-24T14:36:10.918Z,9.33
2018-12-24T14:38:44.220Z,8.13
2018-12-24T14:46:11.686Z,6.67
2018-12-24T14:47:03.790Z,3.03
2018-12-24T14:49:37.713Z,5.13
2018-12-24T14:52:05.948Z,5.13
2018-12-24T14:54:34.348Z,4.60
2018-12-24T14:57:06.724Z,2.03
2018-12-24T14:59:35.030Z,5.07
2018-12-24T15:02:03.379Z,2.93
2018-12-24T15:04:31.500Z,1.90
2018-12-24T15:07:02.380Z,4.13
2018-12-24T15:09:30.597Z,6.03
2018-12-24T15:11:58.777Z,5.23
2018-12-24T15:14:26.902Z,4.90
2018-12-24T15:16:55.040Z,4.43
2018-12-24T15:19:23.286Z,4.10
2018-12-24T15:21:51.438Z,4.40
2018-12-24T15:24:19.631Z,5.77
2018-12-24T15:26:47.866Z,3.40
2018-12-24T15:29:16.020Z,6.10
2018-12-24T15:31:44.322Z,4.20
2018-12-24T15:34:12.454Z,6.83
2018-12-24T15:36:40.598Z,6.60
2018-12-24T15:39:09.715Z,5.97
2018-12-24T15:41:37.954Z,7.43
2018-12-24T15:44:06.397Z,8.27
2018-12-24T15:46:42.509Z,6.07
2018-12-24T15:49:04.533Z,12.40
2018-12-24T15:51:32.774Z,14.00
2018-12-24T15:54:03.704Z,13.60
2018-12-24T15:56:34.801Z,9.27
2018-12-24T15:59:04.249Z,10.90
2018-12-24T16:01:32.511Z,10.40
2018-12-24T16:04:00.682Z,7.53
2018-12-24T16:06:29.099Z,9.93
2018-12-24T16:08:58.135Z,6.00
2018-12-24T16:11:26.853Z,7.17
2018-12-24T16:13:54.894Z,6.07
2018-12-24T16:16:23.250Z,7.93
2018-12-24T16:18:52.758Z,11.63
2018-12-24T16:21:21.247Z,7.83
2018-12-24T16:23:49.529Z,9.67
2018-12-24T16:26:17.866Z,18.87
2018-12-24T16:28:46.441Z,21.43
2018-12-24T16:31:14.876Z,11.70
2018-12-24T16:33:44.721Z,13.80
2018-12-24T16:36:13.000Z,13.07
2018-12-24T16:38:39.788Z,12.53
2018-12-24T16:41:08.089Z,13.97
2018-12-24T16:43:36.466Z,18.43
2018-12-24T16:46:04.730Z,16.10
2018-12-24T16:48:34.089Z,23.63
2018-12-24T16:51:02.298Z,27.37
2018-12-24T16:53:30.518Z,24.20
2018-12-24T16:55:59.223Z,16.00
2018-12-24T16:58:27.431Z,42.37
2018-12-24T17:00:55.989Z,28.13
2018-12-24T17:03:24.247Z,34.47
2018-12-24T17:05:56.359Z,25.47
2018-12-24T17:08:24.739Z,22.37
2018-12-24T17:10:52.969Z,21.20
2018-12-24T17:13:22.284Z,18.77
2018-12-24T17:15:50.567Z,22.93
2018-12-24T17:18:20.235Z,18.93
2018-12-24T17:20:48.361Z,20.07
2018-12-24T17:23:16.586Z,20.13
2018-12-24T17:25:44.993Z,17.37
2018-12-24T17:28:13.339Z,16.43
2018-12-24T17:30:41.680Z,17.77
2018-12-24T17:33:09.981Z,20.33
2018-12-24T17:35:38.108Z,20.03
2018-12-24T17:38:10.323Z,19.70
2018-12-24T17:40:38.329Z,17.83
2018-12-24T17:43:06.485Z,15.87
2018-12-24T17:45:43.527Z,19.20
2018-12-24T17:48:11.719Z,23.67
2018-12-24T17:50:39.961Z,23.10
2018-12-24T17:53:14.382Z,24.57
2018-12-24T17:56:00.499Z,22.30
2018-12-24T17:58:27.710Z,24.23
2018-12-24T18:00:58.360Z,20.27
2018-12-24T18:03:26.575Z,27.63
2018-12-24T18:05:55.293Z,28.33
2018-12-24T18:08:23.533Z,29.70
2018-12-24T18:10:51.647Z,35.07
2018-12-24T18:13:28.669Z,36.30
2018-12-24T18:15:59.809Z,29.53
2018-12-24T18:18:27.908Z,28.10
2018-12-24T18:20:56.043Z,32.80
2018-12-24T18:23:24.175Z,37.07
2018-12-24T18:25:52.334Z,33.60
2018-12-24T18:28:21.007Z,29.27
2018-12-24T18:30:49.170Z,33.60
2018-12-24T18:33:17.387Z,35.30
2018-12-24T18:35:47.367Z,36.33
2018-12-24T18:38:15.593Z,35.47
2018-12-24T18:40:43.716Z,30.17
2018-12-24T18:43:11.996Z,34.90
2018-12-24T18:45:40.245Z,36.47
2018-12-24T18:48:08.451Z,30.73
2018-12-24T18:50:36.584Z,34.10
2018-12-24T18:53:04.701Z,31.53
2018-12-24T18:55:32.968Z,26.90
2018-12-24T18:58:01.274Z,30.60
2018-12-24T19:00:31.954Z,31.30
2018-12-24T19:03:30.763Z,30.17
2018-12-24T19:05:58.902Z,30.53
2018-12-24T19:08:27.121Z,30.87
2018-12-24T19:10:55.326Z,30.07
2018-12-24T19:13:30.904Z,30.30
2018-12-24T19:15:56.541Z,25.73
2018-12-24T19:18:25.305Z,33.67
2018-12-24T19:20:53.612Z,34.13
2018-12-24T19:23:22.066Z,42.27
2018-12-24T19:25:50.398Z,41.10
2018-12-24T19:28:18.643Z,34.67
2018-12-24T19:30:46.992Z,29.23
2018-12-24T19:33:15.146Z,29.40
2018-12-24T19:35:43.356Z,22.80
2018-12-24T19:38:12.318Z,26.00
2018-12-24T19:40:40.400Z,21.30
2018-12-24T19:43:08.817Z,18.77
2018-12-24T19:45:36.958Z,20.13
2018-12-24T19:48:05.424Z,19.07
2018-12-24T19:50:35.435Z,20.70
2018-12-24T19:53:04.093Z,21.60
2018-12-24T19:55:32.303Z,21.23
2018-12-24T19:58:00.484Z,19.20
2018-12-24T20:00:28.667Z,22.20
2018-12-24T20:02:56.883Z,20.60
2018-12-24T20:05:25.078Z,19.90
2018-12-24T20:08:04.444Z,20.20
2018-12-24T20:10:39.217Z,18.03
2018-12-24T20:13:07.564Z,18.93
2018-12-24T20:15:35.790Z,21.63
2018-12-24T20:18:04.431Z,21.07
2018-12-24T20:20:32.573Z,22.87
2018-12-24T20:23:01.257Z,19.40
2018-12-24T20:25:29.340Z,18.27
2018-12-24T20:27:58.012Z,17.83
2018-12-24T20:30:26.092Z,21.10
2018-12-24T20:32:54.361Z,21.73
2018-12-24T20:35:22.565Z,22.07
2018-12-24T20:37:51.066Z,22.23
2018-12-24T20:40:19.213Z,22.93
2018-12-24T20:42:47.407Z,20.27
2018-12-24T20:45:15.580Z,21.37
2018-12-24T20:47:43.714Z,27.47
2018-12-24T20:50:12.199Z,26.73
2018-12-24T20:52:41.548Z,29.27
2018-12-24T20:55:10.911Z,31.50
2018-12-24T20:57:39.081Z,25.63
2018-12-24T21:00:07.389Z,38.80
2018-12-24T21:02:35.469Z,39.03
2018-12-24T21:05:03.754Z,34.40
2018-12-24T21:07:34.098Z,35.73
2018-12-24T21:10:02.280Z,40.13
2018-12-24T21:12:33.526Z,39.40
2018-12-24T21:15:01.721Z,36.10
2018-12-24T21:17:30.722Z,41.73
2018-12-24T21:19:59.213Z,58.40
2018-12-24T21:22:27.331Z,44.27
2018-12-24T21:24:57.115Z,38.17
2018-12-24T21:27:25.250Z,36.93
2018-12-24T21:29:53.598Z,38.40
2018-12-24T21:32:25.232Z,37.67
2018-12-24T21:34:53.366Z,39.70
2018-12-24T21:37:21.456Z,43.20
2018-12-24T21:39:49.909Z,39.93
2018-12-24T21:42:18.064Z,42.10
2018-12-24T21:44:46.164Z,37.57
2018-12-24T21:47:14.286Z,34.07
2018-12-24T21:49:42.865Z,35.07
2018-12-24T21:52:11.076Z,36.60
2018-12-24T21:54:39.233Z,39.03
2018-12-24T21:57:08.395Z,34.80
2018-12-24T21:59:49.004Z,40.17
2018-12-24T22:02:07.135Z,33.30
2018-12-24T22:04:35.316Z,38.30
2018-12-24T22:07:03.576Z,32.43
2018-12-24T22:09:31.682Z,33.03
2018-12-24T22:11:59.834Z,29.40
2018-12-24T22:14:29.510Z,27.67
2018-12-24T22:16:57.694Z,27.07
2018-12-24T22:19:25.919Z,33.50
2018-12-24T22:21:54.012Z,34.07
2018-12-24T22:24:22.120Z,29.33
2018-12-24T22:26:50.344Z,32.33
2018-12-24T22:29:18.528Z,29.73
2018-12-24T22:31:46.681Z,31.17
2018-12-24T22:34:15.488Z,33.20
2018-12-24T22:36:43.606Z,33.63
2018-12-24T22:39:11.814Z,32.23
2018-12-24T22:41:40.136Z,29.87
2018-12-24T22:44:08.260Z,34.83
2018-12-24T22:46:36.421Z,30.77
2018-12-24T22:49:05.799Z,27.30
2018-12-24T22:51:33.950Z,28.87
2018-12-24T22:54:02.138Z,27.23
2018-12-24T22:56:30.275Z,28.57
2018-12-24T22:59:01.034Z,26.17
2018-12-24T23:01:30.193Z,27.63
2018-12-24T23:07:27.155Z,22.97
2018-12-24T23:10:00.887Z,22.67
2018-12-24T23:12:29.038Z,20.80
2018-12-24T23:15:00.191Z,21.03
2018-12-24T23:17:28.317Z,20.60
2018-12-24T23:19:56.592Z,19.77
2018-12-24T23:22:25.045Z,17.80
2018-12-24T23:24:53.153Z,19.90
2018-12-24T23:27:21.271Z,22.10
2018-12-24T23:29:49.371Z,22.60
2018-12-24T23:32:17.559Z,20.30
2018-12-24T23:34:46.699Z,20.87
2018-12-24T23:37:14.811Z,21.00
2018-12-24T23:39:42.967Z,21.17
2018-12-24T23:42:11.632Z,18.80
2018-12-24T23:44:40.963Z,18.63
2018-12-24T23:47:09.115Z,22.47
2018-12-24T23:49:37.760Z,19.70
2018-12-24T23:52:05.926Z,20.53
2018-12-24T23:54:34.568Z,19.00
2018-12-24T23:57:03.004Z,20.70
2018-12-24T23:59:31.141Z,19.73
